sensor_id;sensor_type;location;lat;lon;timestamp;P1;durP1;ratioP1;P2;durP2;ratioP2
52102;SDS011;38101;53.126;6.878;2024-02-15T16:00:35;23.25;;;14.60;;
52102;SDS011;38101;53.126;6.878;2024-02-15T16:03:01;18.45;;;12.80;;
52102;SDS011;38101;53.126;6.878;2024-02-15T16:05:30;17.42;;;11.10;;
52102;SDS011;38101;53.126;6.878;2024-02-15T16:07:55;16.60;;;11.43;;
52102;SDS011;38101;53.126;6.878;2024-02-15T16:10:21;15.93;;;10.82;;
52102;SDS011;38101;53.126;6.878;2024-02-15T16:12:50;16.50;;;10.50;;
52102;SDS011;38101;53.126;6.878;2024-02-15T16:15:17;15.40;;;10.23;;
52102;SDS011;38101;53.126;6.878;2024-02-15T16:17:43;16.60;;;10.25;;
52102;SDS011;38101;53.126;6.878;2024-02-15T16:20:10;13.45;;;10.05;;
52102;SDS011;38101;53.126;6.878;2024-02-15T16:22:39;14.82;;;9.25;;
52102;SDS011;38101;53.126;6.878;2024-02-15T16:25:06;13.88;;;9.27;;
52102;SDS011;38101;53.126;6.878;2024-02-15T16:27:36;13.10;;;9.35;;
52102;SDS011;38101;53.126;6.878;2024-02-15T16:30:03;15.65;;;12.07;;
52102;SDS011;38101;53.126;6.878;2024-02-15T16:32:32;15.73;;;11.23;;
52102;SDS011;38101;53.126;6.878;2024-02-15T16:34:58;26.52;;;15.60;;
52102;SDS011;38101;53.126;6.878;2024-02-15T16:37:24;35.22;;;20.13;;
52102;SDS011;38101;53.126;6.878;2024-02-15T16:39:53;26.67;;;16.10;;
52102;SDS011;38101;53.126;6.878;2024-02-15T16:42:19;24.73;;;12.95;;
52102;SDS011;38101;53.126;6.878;2024-02-15T16:44:46;26.73;;;19.67;;
52102;SDS011;38101;53.126;6.878;2024-02-15T16:47:16;18.73;;;15.55;;
52102;SDS011;38101;53.126;6.878;2024-02-15T16:49:44;15.93;;;12.57;;
52102;SDS011;38101;53.126;6.878;2024-02-15T16:52:10;14.45;;;12.20;;
52102;SDS011;38101;53.126;6.878;2024-02-15T16:54:36;19.17;;;16.90;;
52102;SDS011;38101;53.126;6.878;2024-02-15T16:57:03;17.98;;;13.55;;
52102;SDS011;38101;53.126;6.878;2024-02-15T16:59:29;15.05;;;12.40;;
52102;SDS011;38101;53.126;6.878;2024-02-15T17:01:58;13.73;;;10.50;;
52102;SDS011;38101;53.126;6.878;2024-02-15T17:04:23;15.25;;;10.90;;
52102;SDS011;38101;53.126;6.878;2024-02-15T17:06:50;14.98;;;10.07;;
52102;SDS011;38101;53.126;6.878;2024-02-15T17:09:16;14.65;;;8.75;;
52102;SDS011;38101;53.126;6.878;2024-02-15T17:11:42;14.32;;;10.13;;
52102;SDS011;38101;53.126;6.878;2024-02-15T17:14:09;11.45;;;7.82;;
52102;SDS011;38101;53.126;6.878;2024-02-15T17:16:35;11.68;;;7.40;;
52102;SDS011;38101;53.126;6.878;2024-02-15T17:19:03;9.70;;;7.45;;
52102;SDS011;38101;53.126;6.878;2024-02-15T17:21:31;10.93;;;7.13;;
52102;SDS011;38101;53.126;6.878;2024-02-15T17:23:59;11.52;;;6.63;;
52102;SDS011;38101;53.126;6.878;2024-02-15T17:26:30;9.25;;;6.88;;
52102;SDS011;38101;53.126;6.878;2024-02-15T17:28:56;10.60;;;6.93;;
52102;SDS011;38101;53.126;6.878;2024-02-15T17:31:25;11.07;;;6.40;;
52102;SDS011;38101;53.126;6.878;2024-02-15T17:33:51;10.20;;;6.55;;
52102;SDS011;38101;53.126;6.878;2024-02-15T17:36:17;8.85;;;5.90;;
52102;SDS011;38101;53.126;6.878;2024-02-15T17:38:43;10.05;;;6.30;;
52102;SDS011;38101;53.126;6.878;2024-02-15T17:41:09;9.27;;;6.60;;
52102;SDS011;38101;53.126;6.878;2024-02-15T17:43:36;10.70;;;6.82;;
52102;SDS011;38101;53.126;6.878;2024-02-15T17:46:02;8.57;;;6.25;;
52102;SDS011;38101;53.126;6.878;2024-02-15T17:48:30;10.10;;;5.88;;
52102;SDS011;38101;53.126;6.878;2024-02-15T17:50:56;10.23;;;6.75;;
52102;SDS011;38101;53.126;6.878;2024-02-15T17:53:22;9.50;;;6.10;;
52102;SDS011;38101;53.126;6.878;2024-02-15T17:55:49;9.15;;;6.13;;
52102;SDS011;38101;53.126;6.878;2024-02-15T17:58:17;7.72;;;5.90;;
52102;SDS011;38101;53.126;6.878;2024-02-15T18:00:43;10.32;;;5.43;;
52102;SDS011;38101;53.126;6.878;2024-02-15T18:03:09;8.02;;;5.40;;
52102;SDS011;38101;53.126;6.878;2024-02-15T18:05:38;9.07;;;6.60;;
52102;SDS011;38101;53.126;6.878;2024-02-15T18:08:10;9.73;;;6.63;;
52102;SDS011;38101;53.126;6.878;2024-02-15T18:10:40;8.63;;;6.07;;
52102;SDS011;38101;53.126;6.878;2024-02-15T18:13:06;8.10;;;6.28;;
52102;SDS011;38101;53.126;6.878;2024-02-15T18:15:31;9.32;;;6.25;;
52102;SDS011;38101;53.126;6.878;2024-02-15T18:18:04;8.30;;;5.45;;
52102;SDS011;38101;53.126;6.878;2024-02-15T18:20:33;7.85;;;6.05;;
52102;SDS011;38101;53.126;6.878;2024-02-15T18:22:59;9.52;;;5.75;;
52102;SDS011;38101;53.126;6.878;2024-02-15T18:25:25;9.80;;;6.10;;
52102;SDS011;38101;53.126;6.878;2024-02-15T18:27:51;14.15;;;6.20;;
52102;SDS011;38101;53.126;6.878;2024-02-15T18:30:17;10.68;;;6.35;;
52102;SDS011;38101;53.126;6.878;2024-02-15T18:32:43;8.70;;;6.10;;
52102;SDS011;38101;53.126;6.878;2024-02-15T18:35:10;9.88;;;6.45;;
52102;SDS011;38101;53.126;6.878;2024-02-15T18:37:39;8.80;;;6.38;;
52102;SDS011;38101;53.126;6.878;2024-02-15T18:40:06;7.95;;;5.22;;
52102;SDS011;38101;53.126;6.878;2024-02-15T18:42:34;10.38;;;6.43;;
52102;SDS011;38101;53.126;6.878;2024-02-15T18:45:00;9.50;;;6.00;;
52102;SDS011;38101;53.126;6.878;2024-02-15T18:47:28;8.45;;;5.75;;
52102;SDS011;38101;53.126;6.878;2024-02-15T18:49:55;9.45;;;6.50;;
52102;SDS011;38101;53.126;6.878;2024-02-15T18:52:21;8.20;;;5.85;;
52102;SDS011;38101;53.126;6.878;2024-02-15T18:54:47;7.90;;;6.50;;
52102;SDS011;38101;53.126;6.878;2024-02-15T18:57:12;10.13;;;6.18;;
52102;SDS011;38101;53.126;6.878;2024-02-15T18:59:38;8.90;;;6.18;;
52102;SDS011;38101;53.126;6.878;2024-02-15T19:02:04;10.57;;;6.38;;
52102;SDS011;38101;53.126;6.878;2024-02-15T19:04:32;9.52;;;7.03;;
52102;SDS011;38101;53.126;6.878;2024-02-15T19:06:59;9.15;;;6.35;;
52102;SDS011;38101;53.126;6.878;2024-02-15T19:09:24;8.23;;;5.97;;
52102;SDS011;38101;53.126;6.878;2024-02-15T19:11:50;9.80;;;6.45;;
52102;SDS011;38101;53.126;6.878;2024-02-15T19:14:17;9.73;;;6.68;;
52102;SDS011;38101;53.126;6.878;2024-02-15T19:16:43;12.30;;;7.88;;
52102;SDS011;38101;53.126;6.878;2024-02-15T19:19:09;13.38;;;7.55;;
52102;SDS011;38101;53.126;6.878;2024-02-15T19:21:37;11.27;;;7.05;;
52102;SDS011;38101;53.126;6.878;2024-02-15T19:24:03;9.45;;;6.20;;
52102;SDS011;38101;53.126;6.878;2024-02-15T19:26:29;10.93;;;7.05;;
52102;SDS011;38101;53.126;6.878;2024-02-15T19:28:55;9.98;;;7.47;;
52102;SDS011;38101;53.126;6.878;2024-02-15T19:31:20;10.77;;;7.22;;
52102;SDS011;38101;53.126;6.878;2024-02-15T19:33:46;10.18;;;6.35;;
52102;SDS011;38101;53.126;6.878;2024-02-15T19:36:13;9.05;;;6.85;;
52102;SDS011;38101;53.126;6.878;2024-02-15T19:38:40;10.45;;;6.63;;
52102;SDS011;38101;53.126;6.878;2024-02-15T19:41:05;12.75;;;6.53;;
52102;SDS011;38101;53.126;6.878;2024-02-15T19:43:31;10.05;;;6.82;;
52102;SDS011;38101;53.126;6.878;2024-02-15T19:45:57;10.60;;;6.20;;
52102;SDS011;38101;53.126;6.878;2024-02-15T19:48:23;11.68;;;6.40;;
52102;SDS011;38101;53.126;6.878;2024-02-15T19:50:49;8.93;;;6.38;;
52102;SDS011;38101;53.126;6.878;2024-02-15T19:53:14;10.02;;;6.20;;
52102;SDS011;38101;53.126;6.878;2024-02-15T19:55:40;10.40;;;6.78;;
52102;SDS011;38101;53.126;6.878;2024-02-15T19:58:07;10.23;;;7.38;;
52102;SDS011;38101;53.126;6.878;2024-02-15T20:00:33;13.02;;;7.65;;
52102;SDS011;38101;53.126;6.878;2024-02-15T20:02:59;8.98;;;6.50;;
52102;SDS011;38101;53.126;6.878;2024-02-15T20:05:24;11.50;;;6.70;;
52102;SDS011;38101;53.126;6.878;2024-02-15T20:07:51;10.52;;;6.68;;
52102;SDS011;38101;53.126;6.878;2024-02-15T20:10:17;7.63;;;6.00;;
52102;SDS011;38101;53.126;6.878;2024-02-15T20:12:43;8.80;;;5.93;;
52102;SDS011;38101;53.126;6.878;2024-02-15T20:15:09;9.48;;;6.20;;
52102;SDS011;38101;53.126;6.878;2024-02-15T20:17:35;9.45;;;6.38;;
52102;SDS011;38101;53.126;6.878;2024-02-15T20:20:02;8.52;;;6.05;;
52102;SDS011;38101;53.126;6.878;2024-02-15T20:22:31;9.52;;;6.47;;
52102;SDS011;38101;53.126;6.878;2024-02-15T20:24:57;9.10;;;6.50;;
52102;SDS011;38101;53.126;6.878;2024-02-15T20:27:25;8.90;;;6.80;;
52102;SDS011;38101;53.126;6.878;2024-02-15T20:29:51;9.13;;;5.90;;
52102;SDS011;38101;53.126;6.878;2024-02-15T20:32:17;8.23;;;5.82;;
52102;SDS011;38101;53.126;6.878;2024-02-15T20:34:46;8.98;;;6.45;;
52102;SDS011;38101;53.126;6.878;2024-02-15T20:37:12;7.38;;;6.07;;
52102;SDS011;38101;53.126;6.878;2024-02-15T20:39:38;10.70;;;6.80;;
52102;SDS011;38101;53.126;6.878;2024-02-15T20:42:04;9.77;;;5.90;;
52102;SDS011;38101;53.126;6.878;2024-02-15T20:44:30;8.05;;;6.18;;
52102;SDS011;38101;53.126;6.878;2024-02-15T20:46:56;8.85;;;6.20;;
